Schedule Details


Flight Number: CTN4409
Departure: Frankfurt/main (EDDF) at 10:25
Arrival: Zemunik (LDZD) at 12:00
Route: NOMBO UZ738 MUN UM867 VAROB DCT VEKEN Y66 KANIN DCT GEMKA L607 ULPIN

Weather Information
EDDF 170020Z 03003KT 010V080 CAVOK 07/05 Q1021 NOSIG
LDZD 170000Z 07012KT 020V100 CAVOK 15/02 Q1017
Schedule Frequency

Route Map